sensor_id;sensor_type;location;lat;lon;timestamp;P1;durP1;ratioP1;P2;durP2;ratioP2
13234;SDS011;6683;48.506;9.050;2023-06-26T00:01:29;5.40;;;4.90;;
13234;SDS011;6683;48.506;9.050;2023-06-26T00:04:33;5.17;;;4.67;;
13234;SDS011;6683;48.506;9.050;2023-06-26T00:07:37;5.30;;;4.80;;
13234;SDS011;6683;48.506;9.050;2023-06-26T00:10:39;5.37;;;4.77;;
13234;SDS011;6683;48.506;9.050;2023-06-26T00:13:42;5.57;;;4.97;;
13234;SDS011;6683;48.506;9.050;2023-06-26T00:16:44;5.30;;;4.80;;
13234;SDS011;6683;48.506;9.050;2023-06-26T00:19:48;5.50;;;4.70;;
13234;SDS011;6683;48.506;9.050;2023-06-26T00:22:51;5.43;;;4.87;;
13234;SDS011;6683;48.506;9.050;2023-06-26T00:25:55;5.27;;;4.77;;
13234;SDS011;6683;48.506;9.050;2023-06-26T00:28:57;5.17;;;4.67;;
13234;SDS011;6683;48.506;9.050;2023-06-26T00:32:00;6.70;;;4.77;;
13234;SDS011;6683;48.506;9.050;2023-06-26T00:35:04;6.40;;;5.20;;
13234;SDS011;6683;48.506;9.050;2023-06-26T00:38:07;5.47;;;4.97;;
13234;SDS011;6683;48.506;9.050;2023-06-26T00:41:09;5.70;;;5.13;;
13234;SDS011;6683;48.506;9.050;2023-06-26T00:44:12;6.07;;;5.07;;
13234;SDS011;6683;48.506;9.050;2023-06-26T00:47:15;5.10;;;4.60;;
13234;SDS011;6683;48.506;9.050;2023-06-26T00:50:20;5.60;;;4.90;;
13234;SDS011;6683;48.506;9.050;2023-06-26T00:53:23;5.20;;;4.70;;
13234;SDS011;6683;48.506;9.050;2023-06-26T00:56:26;5.73;;;5.10;;
13234;SDS011;6683;48.506;9.050;2023-06-26T00:59:29;5.13;;;4.63;;
13234;SDS011;6683;48.506;9.050;2023-06-26T01:02:31;4.70;;;4.30;;
13234;SDS011;6683;48.506;9.050;2023-06-26T01:05:36;5.57;;;4.73;;
13234;SDS011;6683;48.506;9.050;2023-06-26T01:08:38;5.67;;;5.10;;
13234;SDS011;6683;48.506;9.050;2023-06-26T01:11:42;5.10;;;4.60;;
13234;SDS011;6683;48.506;9.050;2023-06-26T01:14:45;5.40;;;4.83;;
13234;SDS011;6683;48.506;9.050;2023-06-26T01:17:48;5.67;;;5.17;;
13234;SDS011;6683;48.506;9.050;2023-06-26T01:20:53;5.50;;;4.77;;
13234;SDS011;6683;48.506;9.050;2023-06-26T01:24:02;5.47;;;4.83;;
13234;SDS011;6683;48.506;9.050;2023-06-26T01:27:16;5.30;;;4.67;;
13234;SDS011;6683;48.506;9.050;2023-06-26T01:30:23;5.70;;;4.80;;
13234;SDS011;6683;48.506;9.050;2023-06-26T01:33:26;6.00;;;5.33;;
13234;SDS011;6683;48.506;9.050;2023-06-26T01:36:29;5.20;;;4.70;;
13234;SDS011;6683;48.506;9.050;2023-06-26T01:39:31;5.40;;;4.90;;
13234;SDS011;6683;48.506;9.050;2023-06-26T01:42:35;6.70;;;5.27;;
13234;SDS011;6683;48.506;9.050;2023-06-26T01:45:37;5.80;;;5.00;;
13234;SDS011;6683;48.506;9.050;2023-06-26T01:48:43;6.93;;;4.53;;
13234;SDS011;6683;48.506;9.050;2023-06-26T01:51:55;7.47;;;5.50;;
13234;SDS011;6683;48.506;9.050;2023-06-26T01:55:10;7.00;;;5.97;;
13234;SDS011;6683;48.506;9.050;2023-06-26T01:58:22;5.47;;;4.80;;
13234;SDS011;6683;48.506;9.050;2023-06-26T02:01:26;6.00;;;5.27;;
13234;SDS011;6683;48.506;9.050;2023-06-26T02:04:28;5.70;;;5.17;;
13234;SDS011;6683;48.506;9.050;2023-06-26T02:07:30;5.90;;;5.30;;
13234;SDS011;6683;48.506;9.050;2023-06-26T02:10:33;5.70;;;5.20;;
13234;SDS011;6683;48.506;9.050;2023-06-26T02:13:37;5.97;;;5.10;;
13234;SDS011;6683;48.506;9.050;2023-06-26T02:16:39;9.00;;;5.07;;
13234;SDS011;6683;48.506;9.050;2023-06-26T02:19:41;5.57;;;5.07;;
13234;SDS011;6683;48.506;9.050;2023-06-26T02:22:47;5.83;;;5.23;;
13234;SDS011;6683;48.506;9.050;2023-06-26T02:25:49;6.13;;;5.50;;
13234;SDS011;6683;48.506;9.050;2023-06-26T02:28:53;5.57;;;4.93;;
13234;SDS011;6683;48.506;9.050;2023-06-26T02:31:55;5.30;;;4.80;;
13234;SDS011;6683;48.506;9.050;2023-06-26T02:34:58;7.17;;;5.33;;
13234;SDS011;6683;48.506;9.050;2023-06-26T02:38:00;6.50;;;4.80;;
13234;SDS011;6683;48.506;9.050;2023-06-26T02:41:02;5.93;;;5.33;;
13234;SDS011;6683;48.506;9.050;2023-06-26T02:44:06;5.70;;;5.17;;
13234;SDS011;6683;48.506;9.050;2023-06-26T02:47:08;8.10;;;5.73;;
13234;SDS011;6683;48.506;9.050;2023-06-26T02:50:10;7.23;;;5.00;;
13234;SDS011;6683;48.506;9.050;2023-06-26T02:53:12;5.73;;;5.13;;
13234;SDS011;6683;48.506;9.050;2023-06-26T02:56:16;7.23;;;5.70;;
13234;SDS011;6683;48.506;9.050;2023-06-26T02:59:19;5.30;;;4.80;;
13234;SDS011;6683;48.506;9.050;2023-06-26T03:02:22;5.53;;;5.00;;
13234;SDS011;6683;48.506;9.050;2023-06-26T03:05:24;5.97;;;5.27;;
13234;SDS011;6683;48.506;9.050;2023-06-26T03:08:26;8.30;;;6.13;;
13234;SDS011;6683;48.506;9.050;2023-06-26T03:11:28;6.50;;;5.23;;
13234;SDS011;6683;48.506;9.050;2023-06-26T03:14:31;6.10;;;5.50;;
13234;SDS011;6683;48.506;9.050;2023-06-26T03:17:34;5.87;;;5.27;;
13234;SDS011;6683;48.506;9.050;2023-06-26T03:20:36;6.00;;;5.40;;
13234;SDS011;6683;48.506;9.050;2023-06-26T03:23:39;5.53;;;4.73;;
13234;SDS011;6683;48.506;9.050;2023-06-26T03:26:41;6.00;;;5.40;;
13234;SDS011;6683;48.506;9.050;2023-06-26T03:29:44;6.00;;;5.40;;
13234;SDS011;6683;48.506;9.050;2023-06-26T03:32:47;6.97;;;5.37;;
13234;SDS011;6683;48.506;9.050;2023-06-26T03:35:49;6.10;;;5.50;;
13234;SDS011;6683;48.506;9.050;2023-06-26T03:38:51;6.60;;;5.03;;
13234;SDS011;6683;48.506;9.050;2023-06-26T03:41:56;5.50;;;5.00;;
13234;SDS011;6683;48.506;9.050;2023-06-26T03:45:02;7.47;;;5.53;;
13234;SDS011;6683;48.506;9.050;2023-06-26T03:48:05;7.60;;;6.00;;
13234;SDS011;6683;48.506;9.050;2023-06-26T03:51:08;6.77;;;5.67;;
13234;SDS011;6683;48.506;9.050;2023-06-26T03:54:10;8.70;;;6.27;;
13234;SDS011;6683;48.506;9.050;2023-06-26T03:57:12;6.07;;;5.37;;
13234;SDS011;6683;48.506;9.050;2023-06-26T04:00:17;5.97;;;5.37;;
13234;SDS011;6683;48.506;9.050;2023-06-26T04:03:19;6.60;;;5.93;;
13234;SDS011;6683;48.506;9.050;2023-06-26T04:06:21;6.27;;;5.67;;
13234;SDS011;6683;48.506;9.050;2023-06-26T04:09:23;6.87;;;5.77;;
13234;SDS011;6683;48.506;9.050;2023-06-26T04:12:26;5.77;;;5.17;;
13234;SDS011;6683;48.506;9.050;2023-06-26T04:15:30;5.80;;;5.20;;
13234;SDS011;6683;48.506;9.050;2023-06-26T04:18:32;7.33;;;5.97;;
13234;SDS011;6683;48.506;9.050;2023-06-26T04:21:34;6.17;;;5.27;;
13234;SDS011;6683;48.506;9.050;2023-06-26T04:24:37;6.00;;;5.40;;
13234;SDS011;6683;48.506;9.050;2023-06-26T04:27:39;5.87;;;5.27;;
13234;SDS011;6683;48.506;9.050;2023-06-26T04:30:43;6.67;;;5.80;;
13234;SDS011;6683;48.506;9.050;2023-06-26T04:33:45;6.00;;;5.47;;
13234;SDS011;6683;48.506;9.050;2023-06-26T04:36:50;8.27;;;5.67;;
13234;SDS011;6683;48.506;9.050;2023-06-26T04:39:53;6.60;;;5.90;;
13234;SDS011;6683;48.506;9.050;2023-06-26T04:42:55;7.37;;;5.07;;
13234;SDS011;6683;48.506;9.050;2023-06-26T04:45:59;6.70;;;6.00;;
13234;SDS011;6683;48.506;9.050;2023-06-26T04:49:02;7.20;;;5.70;;
13234;SDS011;6683;48.506;9.050;2023-06-26T04:52:04;9.57;;;6.33;;
13234;SDS011;6683;48.506;9.050;2023-06-26T04:55:07;6.10;;;5.50;;
13234;SDS011;6683;48.506;9.050;2023-06-26T04:58:09;6.50;;;5.90;;
13234;SDS011;6683;48.506;9.050;2023-06-26T05:01:13;7.03;;;5.73;;
13234;SDS011;6683;48.506;9.050;2023-06-26T05:04:15;5.50;;;5.00;;
13234;SDS011;6683;48.506;9.050;2023-06-26T05:07:18;7.47;;;5.63;;
13234;SDS011;6683;48.506;9.050;2023-06-26T05:10:20;5.83;;;5.33;;
13234;SDS011;6683;48.506;9.050;2023-06-26T05:13:23;6.57;;;5.57;;
13234;SDS011;6683;48.506;9.050;2023-06-26T05:16:26;7.73;;;5.33;;
13234;SDS011;6683;48.506;9.050;2023-06-26T05:19:29;6.70;;;6.00;;
13234;SDS011;6683;48.506;9.050;2023-06-26T05:22:31;7.67;;;5.97;;
13234;SDS011;6683;48.506;9.050;2023-06-26T05:25:35;6.80;;;6.20;;
13234;SDS011;6683;48.506;9.050;2023-06-26T05:28:38;6.73;;;6.03;;
13234;SDS011;6683;48.506;9.050;2023-06-26T05:31:42;7.47;;;5.90;;
13234;SDS011;6683;48.506;9.050;2023-06-26T05:34:48;5.93;;;5.33;;
13234;SDS011;6683;48.506;9.050;2023-06-26T05:37:53;6.13;;;5.53;;
13234;SDS011;6683;48.506;9.050;2023-06-26T05:40:56;6.77;;;6.00;;
13234;SDS011;6683;48.506;9.050;2023-06-26T05:43:59;7.20;;;5.70;;
13234;SDS011;6683;48.506;9.050;2023-06-26T05:47:04;6.83;;;6.17;;
13234;SDS011;6683;48.506;9.050;2023-06-26T05:50:07;6.07;;;5.37;;
13234;SDS011;6683;48.506;9.050;2023-06-26T05:53:11;7.10;;;5.77;;
13234;SDS011;6683;48.506;9.050;2023-06-26T05:56:14;6.13;;;5.53;;
13234;SDS011;6683;48.506;9.050;2023-06-26T05:59:18;5.70;;;5.10;;
13234;SDS011;6683;48.506;9.050;2023-06-26T06:02:23;8.23;;;5.53;;
13234;SDS011;6683;48.506;9.050;2023-06-26T06:05:25;6.53;;;5.93;;
13234;SDS011;6683;48.506;9.050;2023-06-26T06:08:27;6.27;;;5.67;;
13234;SDS011;6683;48.506;9.050;2023-06-26T06:11:29;5.80;;;5.20;;
13234;SDS011;6683;48.506;9.050;2023-06-26T06:14:31;8.63;;;5.53;;
13234;SDS011;6683;48.506;9.050;2023-06-26T06:17:35;5.80;;;5.27;;
13234;SDS011;6683;48.506;9.050;2023-06-26T06:20:37;6.23;;;5.50;;
13234;SDS011;6683;48.506;9.050;2023-06-26T06:23:40;5.30;;;4.80;;
13234;SDS011;6683;48.506;9.050;2023-06-26T06:26:42;5.43;;;4.93;;
13234;SDS011;6683;48.506;9.050;2023-06-26T06:29:44;7.10;;;5.30;;
13234;SDS011;6683;48.506;9.050;2023-06-26T06:32:48;5.85;;;5.30;;
13234;SDS011;6683;48.506;9.050;2023-06-26T06:35:50;5.93;;;5.28;;
13234;SDS011;6683;48.506;9.050;2023-06-26T06:38:52;5.15;;;4.65;;
13234;SDS011;6683;48.506;9.050;2023-06-26T06:41:54;5.93;;;5.28;;
13234;SDS011;6683;48.506;9.050;2023-06-26T06:44:57;5.78;;;5.20;;
13234;SDS011;6683;48.506;9.050;2023-06-26T06:48:00;5.28;;;4.78;;
13234;SDS011;6683;48.506;9.050;2023-06-26T06:51:03;5.45;;;4.93;;
13234;SDS011;6683;48.506;9.050;2023-06-26T06:54:05;5.57;;;5.07;;
13234;SDS011;6683;48.506;9.050;2023-06-26T06:57:07;6.22;;;4.78;;
13234;SDS011;6683;48.506;9.050;2023-06-26T07:00:10;6.28;;;5.05;;
13234;SDS011;6683;48.506;9.050;2023-06-26T07:03:16;6.35;;;5.38;;
13234;SDS011;6683;48.506;9.050;2023-06-26T07:06:21;5.68;;;5.13;;
13234;SDS011;6683;48.506;9.050;2023-06-26T07:09:23;5.22;;;4.72;;
13234;SDS011;6683;48.506;9.050;2023-06-26T07:12:26;5.40;;;4.90;;
13234;SDS011;6683;48.506;9.050;2023-06-26T07:15:28;5.95;;;4.82;;
13234;SDS011;6683;48.506;9.050;2023-06-26T07:18:32;5.20;;;4.70;;
13234;SDS011;6683;48.506;9.050;2023-06-26T07:21:34;4.93;;;4.53;;
13234;SDS011;6683;48.506;9.050;2023-06-26T07:24:37;5.38;;;4.88;;
13234;SDS011;6683;48.506;9.050;2023-06-26T07:27:40;6.22;;;5.18;;
13234;SDS011;6683;48.506;9.050;2023-06-26T07:30:43;5.03;;;4.57;;
13234;SDS011;6683;48.506;9.050;2023-06-26T07:33:48;5.35;;;4.85;;
13234;SDS011;6683;48.506;9.050;2023-06-26T07:36:51;4.97;;;4.53;;
13234;SDS011;6683;48.506;9.050;2023-06-26T07:39:53;5.13;;;4.68;;
13234;SDS011;6683;48.506;9.050;2023-06-26T07:42:58;5.30;;;4.80;;
13234;SDS011;6683;48.506;9.050;2023-06-26T07:46:03;5.20;;;4.70;;
13234;SDS011;6683;48.506;9.050;2023-06-26T07:49:07;4.82;;;4.43;;
13234;SDS011;6683;48.506;9.050;2023-06-26T07:52:09;4.72;;;4.32;;
13234;SDS011;6683;48.506;9.050;2023-06-26T07:55:11;4.60;;;4.05;;
13234;SDS011;6683;48.506;9.050;2023-06-26T07:58:13;5.32;;;4.45;;
13234;SDS011;6683;48.506;9.050;2023-06-26T08:01:18;4.38;;;4.07;;
13234;SDS011;6683;48.506;9.050;2023-06-26T08:04:22;4.20;;;3.80;;
13234;SDS011;6683;48.506;9.050;2023-06-26T08:07:25;4.68;;;4.28;;
13234;SDS011;6683;48.506;9.050;2023-06-26T08:10:28;4.65;;;4.22;;
13234;SDS011;6683;48.506;9.050;2023-06-26T08:13:31;4.35;;;4.05;;
13234;SDS011;6683;48.506;9.050;2023-06-26T08:16:33;4.40;;;4.00;;
13234;SDS011;6683;48.506;9.050;2023-06-26T08:19:37;4.25;;;3.90;;
13234;SDS011;6683;48.506;9.050;2023-06-26T08:22:39;4.60;;;4.20;;
13234;SDS011;6683;48.506;9.050;2023-06-26T08:25:42;3.88;;;3.58;;
13234;SDS011;6683;48.506;9.050;2023-06-26T08:28:44;4.28;;;3.88;;
13234;SDS011;6683;48.506;9.050;2023-06-26T08:31:47;4.43;;;4.05;;
13234;SDS011;6683;48.506;9.050;2023-06-26T08:34:50;4.32;;;3.92;;
13234;SDS011;6683;48.506;9.050;2023-06-26T08:37:52;3.70;;;3.40;;
13234;SDS011;6683;48.506;9.050;2023-06-26T08:40:55;4.75;;;3.90;;
13234;SDS011;6683;48.506;9.050;2023-06-26T08:43:58;4.78;;;3.92;;
13234;SDS011;6683;48.506;9.050;2023-06-26T08:47:00;4.07;;;3.78;;
13234;SDS011;6683;48.506;9.050;2023-06-26T08:50:08;4.10;;;3.80;;
13234;SDS011;6683;48.506;9.050;2023-06-26T08:53:18;4.13;;;3.72;;
13234;SDS011;6683;48.506;9.050;2023-06-26T08:56:28;3.90;;;3.60;;
13234;SDS011;6683;48.506;9.050;2023-06-26T08:59:35;5.68;;;3.72;;
13234;SDS011;6683;48.506;9.050;2023-06-26T09:02:38;4.03;;;3.72;;
13234;SDS011;6683;48.506;9.050;2023-06-26T09:05:43;4.50;;;4.10;;
13234;SDS011;6683;48.506;9.050;2023-06-26T09:08:46;4.28;;;3.97;;
13234;SDS011;6683;48.506;9.050;2023-06-26T09:11:48;4.30;;;4.00;;
13234;SDS011;6683;48.506;9.050;2023-06-26T09:14:51;4.60;;;4.20;;
13234;SDS011;6683;48.506;9.050;2023-06-26T09:17:56;4.13;;;3.83;;
13234;SDS011;6683;48.506;9.050;2023-06-26T09:21:00;4.13;;;3.83;;
13234;SDS011;6683;48.506;9.050;2023-06-26T09:24:09;4.20;;;3.90;;
13234;SDS011;6683;48.506;9.050;2023-06-26T09:27:11;4.30;;;3.90;;
13234;SDS011;6683;48.506;9.050;2023-06-26T09:30:16;4.05;;;3.75;;
13234;SDS011;6683;48.506;9.050;2023-06-26T09:33:20;4.25;;;3.95;;
13234;SDS011;6683;48.506;9.050;2023-06-26T09:36:26;4.43;;;4.13;;
13234;SDS011;6683;48.506;9.050;2023-06-26T09:39:32;4.22;;;3.92;;
13234;SDS011;6683;48.506;9.050;2023-06-26T09:42:35;4.20;;;3.80;;
13234;SDS011;6683;48.506;9.050;2023-06-26T09:45:37;4.60;;;4.20;;
13234;SDS011;6683;48.506;9.050;2023-06-26T09:48:41;4.45;;;4.15;;
13234;SDS011;6683;48.506;9.050;2023-06-26T09:51:45;4.32;;;4.03;;
13234;SDS011;6683;48.506;9.050;2023-06-26T09:54:48;4.05;;;3.75;;
13234;SDS011;6683;48.506;9.050;2023-06-26T09:57:50;3.85;;;3.63;;
13234;SDS011;6683;48.506;9.050;2023-06-26T10:00:53;4.30;;;4.00;;
13234;SDS011;6683;48.506;9.050;2023-06-26T10:03:55;4.55;;;4.15;;
13234;SDS011;6683;48.506;9.050;2023-06-26T10:07:01;4.18;;;3.88;;
13234;SDS011;6683;48.506;9.050;2023-06-26T10:10:06;7.85;;;4.47;;
13234;SDS011;6683;48.506;9.050;2023-06-26T10:13:11;4.20;;;3.90;;
13234;SDS011;6683;48.506;9.050;2023-06-26T10:16:18;4.65;;;4.28;;
13234;SDS011;6683;48.506;9.050;2023-06-26T10:19:28;4.45;;;4.15;;
13234;SDS011;6683;48.506;9.050;2023-06-26T10:22:36;4.22;;;3.92;;
13234;SDS011;6683;48.506;9.050;2023-06-26T10:25:44;4.00;;;3.67;;
13234;SDS011;6683;48.506;9.050;2023-06-26T10:28:50;4.10;;;3.78;;
13234;SDS011;6683;48.506;9.050;2023-06-26T10:31:55;4.40;;;4.10;;
13234;SDS011;6683;48.506;9.050;2023-06-26T10:35:01;4.35;;;4.03;;
13234;SDS011;6683;48.506;9.050;2023-06-26T10:38:06;4.68;;;4.28;;
13234;SDS011;6683;48.506;9.050;2023-06-26T10:41:09;4.43;;;4.13;;
13234;SDS011;6683;48.506;9.050;2023-06-26T10:44:16;4.70;;;4.30;;
13234;SDS011;6683;48.506;9.050;2023-06-26T10:47:30;4.50;;;4.13;;
13234;SDS011;6683;48.506;9.050;2023-06-26T10:50:33;4.63;;;4.22;;
13234;SDS011;6683;48.506;9.050;2023-06-26T10:53:38;4.00;;;3.70;;
13234;SDS011;6683;48.506;9.050;2023-06-26T10:56:44;4.53;;;4.13;;
13234;SDS011;6683;48.506;9.050;2023-06-26T10:59:48;4.50;;;4.20;;
13234;SDS011;6683;48.506;9.050;2023-06-26T11:02:50;4.85;;;4.45;;
13234;SDS011;6683;48.506;9.050;2023-06-26T11:06:08;4.63;;;4.22;;
13234;SDS011;6683;48.506;9.050;2023-06-26T11:09:13;4.30;;;3.97;;
13234;SDS011;6683;48.506;9.050;2023-06-26T11:12:33;5.00;;;4.60;;
13234;SDS011;6683;48.506;9.050;2023-06-26T11:15:37;4.90;;;4.55;;
13234;SDS011;6683;48.506;9.050;2023-06-26T11:18:40;4.78;;;4.38;;
13234;SDS011;6683;48.506;9.050;2023-06-26T11:21:43;4.72;;;4.30;;
13234;SDS011;6683;48.506;9.050;2023-06-26T11:24:47;4.70;;;4.32;;
13234;SDS011;6683;48.506;9.050;2023-06-26T11:27:54;4.88;;;4.55;;
13234;SDS011;6683;48.506;9.050;2023-06-26T11:30:57;4.80;;;4.50;;
13234;SDS011;6683;48.506;9.050;2023-06-26T11:34:00;5.07;;;4.68;;
13234;SDS011;6683;48.506;9.050;2023-06-26T11:37:05;5.22;;;4.82;;
13234;SDS011;6683;48.506;9.050;2023-06-26T11:40:19;4.50;;;4.15;;
13234;SDS011;6683;48.506;9.050;2023-06-26T11:43:26;5.15;;;4.75;;
13234;SDS011;6683;48.506;9.050;2023-06-26T11:46:29;5.40;;;4.90;;
13234;SDS011;6683;48.506;9.050;2023-06-26T11:49:32;5.03;;;4.63;;
13234;SDS011;6683;48.506;9.050;2023-06-26T11:52:35;5.90;;;5.03;;
13234;SDS011;6683;48.506;9.050;2023-06-26T11:55:41;5.30;;;4.90;;
13234;SDS011;6683;48.506;9.050;2023-06-26T11:58:57;9.25;;;4.80;;
13234;SDS011;6683;48.506;9.050;2023-06-26T12:02:06;5.43;;;4.93;;
13234;SDS011;6683;48.506;9.050;2023-06-26T12:05:10;4.60;;;4.20;;
13234;SDS011;6683;48.506;9.050;2023-06-26T12:08:14;4.38;;;3.97;;
13234;SDS011;6683;48.506;9.050;2023-06-26T12:11:17;5.32;;;4.93;;
13234;SDS011;6683;48.506;9.050;2023-06-26T12:14:24;4.93;;;4.53;;
13234;SDS011;6683;48.506;9.050;2023-06-26T12:17:28;5.05;;;4.65;;
13234;SDS011;6683;48.506;9.050;2023-06-26T12:20:31;5.30;;;4.78;;
13234;SDS011;6683;48.506;9.050;2023-06-26T12:23:33;5.22;;;4.57;;
13234;SDS011;6683;48.506;9.050;2023-06-26T12:26:42;5.25;;;4.85;;
13234;SDS011;6683;48.506;9.050;2023-06-26T12:29:49;5.25;;;4.85;;
13234;SDS011;6683;48.506;9.050;2023-06-26T12:32:53;4.45;;;4.15;;
13234;SDS011;6683;48.506;9.050;2023-06-26T12:35:55;5.35;;;4.85;;
13234;SDS011;6683;48.506;9.050;2023-06-26T12:39:00;6.55;;;4.65;;
13234;SDS011;6683;48.506;9.050;2023-06-26T12:42:06;5.72;;;5.32;;
13234;SDS011;6683;48.506;9.050;2023-06-26T12:45:12;5.07;;;4.60;;
13234;SDS011;6683;48.506;9.050;2023-06-26T12:48:15;4.60;;;4.30;;
13234;SDS011;6683;48.506;9.050;2023-06-26T12:51:17;5.30;;;4.78;;
13234;SDS011;6683;48.506;9.050;2023-06-26T12:54:20;4.82;;;4.43;;
13234;SDS011;6683;48.506;9.050;2023-06-26T12:57:24;5.00;;;4.60;;
13234;SDS011;6683;48.506;9.050;2023-06-26T13:00:26;4.97;;;4.50;;
13234;SDS011;6683;48.506;9.050;2023-06-26T13:03:29;4.82;;;4.45;;
13234;SDS011;6683;48.506;9.050;2023-06-26T13:06:31;4.82;;;4.40;;
13234;SDS011;6683;48.506;9.050;2023-06-26T13:09:33;7.43;;;5.22;;
13234;SDS011;6683;48.506;9.050;2023-06-26T13:12:38;5.40;;;4.75;;
13234;SDS011;6683;48.506;9.050;2023-06-26T13:15:40;5.88;;;5.03;;
13234;SDS011;6683;48.506;9.050;2023-06-26T13:18:42;5.68;;;5.13;;
13234;SDS011;6683;48.506;9.050;2023-06-26T13:21:45;5.18;;;4.78;;
13234;SDS011;6683;48.506;9.050;2023-06-26T13:24:48;5.85;;;4.20;;
13234;SDS011;6683;48.506;9.050;2023-06-26T13:27:51;5.38;;;4.88;;
13234;SDS011;6683;48.506;9.050;2023-06-26T13:30:53;4.90;;;4.50;;
13234;SDS011;6683;48.506;9.050;2023-06-26T13:33:57;4.95;;;4.53;;
13234;SDS011;6683;48.506;9.050;2023-06-26T13:37:00;5.03;;;4.63;;
13234;SDS011;6683;48.506;9.050;2023-06-26T13:40:02;5.00;;;4.55;;
13234;SDS011;6683;48.506;9.050;2023-06-26T13:43:08;5.25;;;4.85;;
13234;SDS011;6683;48.506;9.050;2023-06-26T13:46:11;4.85;;;4.50;;
13234;SDS011;6683;48.506;9.050;2023-06-26T13:49:13;4.72;;;4.32;;
13234;SDS011;6683;48.506;9.050;2023-06-26T13:52:15;4.82;;;4.43;;
13234;SDS011;6683;48.506;9.050;2023-06-26T13:55:18;5.28;;;4.88;;
13234;SDS011;6683;48.506;9.050;2023-06-26T13:58:24;4.55;;;4.15;;
13234;SDS011;6683;48.506;9.050;2023-06-26T14:01:28;4.47;;;4.07;;
13234;SDS011;6683;48.506;9.050;2023-06-26T14:04:30;5.40;;;3.90;;
13234;SDS011;6683;48.506;9.050;2023-06-26T14:07:33;4.68;;;4.28;;
13234;SDS011;6683;48.506;9.050;2023-06-26T14:10:35;6.40;;;4.10;;
13234;SDS011;6683;48.506;9.050;2023-06-26T14:13:39;4.40;;;4.00;;
13234;SDS011;6683;48.506;9.050;2023-06-26T14:16:42;5.55;;;4.07;;
13234;SDS011;6683;48.506;9.050;2023-06-26T14:19:44;4.43;;;4.07;;
13234;SDS011;6683;48.506;9.050;2023-06-26T14:22:47;4.15;;;3.83;;
13234;SDS011;6683;48.506;9.050;2023-06-26T14:25:50;8.57;;;4.63;;
13234;SDS011;6683;48.506;9.050;2023-06-26T14:28:54;4.30;;;3.90;;
13234;SDS011;6683;48.506;9.050;2023-06-26T14:31:56;4.38;;;4.03;;
13234;SDS011;6683;48.506;9.050;2023-06-26T14:34:58;4.97;;;4.57;;
13234;SDS011;6683;48.506;9.050;2023-06-26T14:38:01;4.43;;;4.00;;
13234;SDS011;6683;48.506;9.050;2023-06-26T14:41:03;4.30;;;3.50;;
13234;SDS011;6683;48.506;9.050;2023-06-26T14:44:07;4.65;;;3.35;;
13234;SDS011;6683;48.506;9.050;2023-06-26T14:47:11;3.80;;;3.42;;
13234;SDS011;6683;48.506;9.050;2023-06-26T14:50:13;3.45;;;3.15;;
13234;SDS011;6683;48.506;9.050;2023-06-26T14:53:16;3.63;;;3.33;;
13234;SDS011;6683;48.506;9.050;2023-06-26T14:56:18;4.38;;;4.00;;
13234;SDS011;6683;48.506;9.050;2023-06-26T14:59:22;3.70;;;3.25;;
13234;SDS011;6683;48.506;9.050;2023-06-26T15:02:24;3.65;;;3.35;;
13234;SDS011;6683;48.506;9.050;2023-06-26T15:05:27;3.50;;;3.20;;
13234;SDS011;6683;48.506;9.050;2023-06-26T15:08:29;3.25;;;2.95;;
13234;SDS011;6683;48.506;9.050;2023-06-26T15:11:31;3.63;;;3.33;;
13234;SDS011;6683;48.506;9.050;2023-06-26T15:14:36;3.20;;;2.88;;
13234;SDS011;6683;48.506;9.050;2023-06-26T15:17:38;3.53;;;3.22;;
13234;SDS011;6683;48.506;9.050;2023-06-26T15:20:40;3.45;;;3.15;;
13234;SDS011;6683;48.506;9.050;2023-06-26T15:23:44;3.78;;;3.47;;
13234;SDS011;6683;48.506;9.050;2023-06-26T15:26:47;3.10;;;2.90;;
13234;SDS011;6683;48.506;9.050;2023-06-26T15:29:50;3.25;;;2.95;;
13234;SDS011;6683;48.506;9.050;2023-06-26T15:32:52;4.43;;;3.15;;
13234;SDS011;6683;48.506;9.050;2023-06-26T15:35:54;3.05;;;2.85;;
13234;SDS011;6683;48.506;9.050;2023-06-26T15:38:57;3.03;;;2.83;;
13234;SDS011;6683;48.506;9.050;2023-06-26T15:41:59;4.65;;;2.92;;
13234;SDS011;6683;48.506;9.050;2023-06-26T15:45:05;2.92;;;2.63;;
13234;SDS011;6683;48.506;9.050;2023-06-26T15:48:08;3.08;;;2.78;;
13234;SDS011;6683;48.506;9.050;2023-06-26T15:51:12;3.67;;;3.38;;
13234;SDS011;6683;48.506;9.050;2023-06-26T15:54:15;2.90;;;2.63;;
13234;SDS011;6683;48.506;9.050;2023-06-26T15:57:17;3.40;;;3.00;;
13234;SDS011;6683;48.506;9.050;2023-06-26T16:00:21;2.97;;;2.67;;
13234;SDS011;6683;48.506;9.050;2023-06-26T16:03:24;3.00;;;2.80;;
13234;SDS011;6683;48.506;9.050;2023-06-26T16:06:26;3.75;;;2.78;;
13234;SDS011;6683;48.506;9.050;2023-06-26T16:09:28;3.25;;;2.95;;
13234;SDS011;6683;48.506;9.050;2023-06-26T16:12:30;3.05;;;2.85;;
13234;SDS011;6683;48.506;9.050;2023-06-26T16:15:33;3.33;;;3.03;;
13234;SDS011;6683;48.506;9.050;2023-06-26T16:18:35;3.92;;;3.00;;
13234;SDS011;6683;48.506;9.050;2023-06-26T16:21:37;3.28;;;2.80;;
13234;SDS011;6683;48.506;9.050;2023-06-26T16:24:40;4.03;;;3.28;;
13234;SDS011;6683;48.506;9.050;2023-06-26T16:27:42;3.95;;;3.10;;
13234;SDS011;6683;48.506;9.050;2023-06-26T16:30:46;3.45;;;3.15;;
13234;SDS011;6683;48.506;9.050;2023-06-26T16:33:49;4.45;;;3.63;;
13234;SDS011;6683;48.506;9.050;2023-06-26T16:36:51;3.78;;;3.47;;
13234;SDS011;6683;48.506;9.050;2023-06-26T16:39:53;3.50;;;3.20;;
13234;SDS011;6683;48.506;9.050;2023-06-26T16:42:56;3.55;;;3.25;;
13234;SDS011;6683;48.506;9.050;2023-06-26T16:45:59;4.20;;;3.80;;
13234;SDS011;6683;48.506;9.050;2023-06-26T16:49:02;4.20;;;3.78;;
13234;SDS011;6683;48.506;9.050;2023-06-26T16:52:05;5.90;;;3.55;;
13234;SDS011;6683;48.506;9.050;2023-06-26T16:55:08;5.43;;;3.65;;
13234;SDS011;6683;48.506;9.050;2023-06-26T16:58:11;4.68;;;3.88;;
13234;SDS011;6683;48.506;9.050;2023-06-26T17:01:14;4.00;;;3.58;;
13234;SDS011;6683;48.506;9.050;2023-06-26T17:04:17;3.75;;;3.28;;
13234;SDS011;6683;48.506;9.050;2023-06-26T17:07:19;3.58;;;3.28;;
13234;SDS011;6683;48.506;9.050;2023-06-26T17:10:21;4.10;;;3.33;;
13234;SDS011;6683;48.506;9.050;2023-06-26T17:13:24;3.75;;;3.35;;
13234;SDS011;6683;48.506;9.050;2023-06-26T17:16:28;2.85;;;2.55;;
13234;SDS011;6683;48.506;9.050;2023-06-26T17:19:31;3.03;;;2.83;;
13234;SDS011;6683;48.506;9.050;2023-06-26T17:22:34;2.90;;;2.60;;
13234;SDS011;6683;48.506;9.050;2023-06-26T17:25:36;3.30;;;2.42;;
13234;SDS011;6683;48.506;9.050;2023-06-26T17:28:38;2.60;;;2.33;;
13234;SDS011;6683;48.506;9.050;2023-06-26T17:31:42;3.08;;;2.75;;
13234;SDS011;6683;48.506;9.050;2023-06-26T17:34:44;3.65;;;2.40;;
13234;SDS011;6683;48.506;9.050;2023-06-26T17:37:46;4.40;;;2.40;;
13234;SDS011;6683;48.506;9.050;2023-06-26T17:40:49;2.33;;;2.13;;
13234;SDS011;6683;48.506;9.050;2023-06-26T17:43:51;2.67;;;2.15;;
13234;SDS011;6683;48.506;9.050;2023-06-26T17:46:55;5.40;;;2.28;;
13234;SDS011;6683;48.506;9.050;2023-06-26T17:49:57;4.60;;;2.00;;
13234;SDS011;6683;48.506;9.050;2023-06-26T17:53:00;4.20;;;2.10;;
13234;SDS011;6683;48.506;9.050;2023-06-26T17:56:02;2.10;;;1.90;;
13234;SDS011;6683;48.506;9.050;2023-06-26T17:59:05;2.80;;;1.90;;
13234;SDS011;6683;48.506;9.050;2023-06-26T18:02:09;1.88;;;1.77;;
13234;SDS011;6683;48.506;9.050;2023-06-26T18:05:12;2.95;;;1.67;;
13234;SDS011;6683;48.506;9.050;2023-06-26T18:08:15;2.45;;;1.73;;
13234;SDS011;6683;48.506;9.050;2023-06-26T18:11:17;2.65;;;1.40;;
13234;SDS011;6683;48.506;9.050;2023-06-26T18:14:19;2.00;;;1.90;;
13234;SDS011;6683;48.506;9.050;2023-06-26T18:17:22;1.65;;;1.55;;
13234;SDS011;6683;48.506;9.050;2023-06-26T18:20:25;2.30;;;1.50;;
13234;SDS011;6683;48.506;9.050;2023-06-26T18:23:27;2.22;;;1.70;;
13234;SDS011;6683;48.506;9.050;2023-06-26T18:26:29;2.05;;;1.52;;
13234;SDS011;6683;48.506;9.050;2023-06-26T18:29:32;1.70;;;1.60;;
13234;SDS011;6683;48.506;9.050;2023-06-26T18:32:36;2.05;;;1.65;;
13234;SDS011;6683;48.506;9.050;2023-06-26T18:35:38;2.88;;;1.63;;
13234;SDS011;6683;48.506;9.050;2023-06-26T18:38:41;1.80;;;1.45;;
13234;SDS011;6683;48.506;9.050;2023-06-26T18:41:43;2.55;;;1.50;;